Have a Safe July 4th! 

Flight Track Log - Related Links

Times and Time Zones

All times are in EDT time to prevent confusion due to time zone crossing. See the N690KY flight status page for this flight to view local times or setup timezone preferences in your user account.

Time Position Orientation Groundspeed Altitude Reporting Facility
EDT Latitude Longitude Course Direction KTS MPH feet Rate Location/Type
Wed 01:45:34 PM 38.2000 -78.1500 270° West 132 152 2,800  Level Potomac TRACON
Wed 01:46:40 PM 38.1833 -78.2000 247° West 129 148 3,700 857 Climbing Potomac TRACON
Wed 01:47:40 PM 38.1667 -78.2333 238° Southwest 126 145 4,600 818 Climbing Potomac TRACON
Wed 01:48:30 PM 38.1622 -78.2669 260° West 126 145 5,200 696 Climbing Washington Center
Wed 01:49:32 PM 38.1489 -78.3008 243° Southwest 131 151 5,900 689 Climbing Washington Center
Wed 01:50:32 PM 38.1333 -78.3450 246° West 131 151 6,600 661 Climbing Washington Center
Wed 01:51:00 PM 38.1167 -78.3508 270° West  Level FlightAware Approximate
Wed 01:51:30 PM 38.1178 -78.3814 241° Southwest 131 151 7,200  Level Washington Center
Wed 01:52:30 PM 38.1022 -78.4231 245° Southwest 131 151 7,800 595 Climbing Washington Center
Wed 01:53:31 PM 38.0889 -78.4569 243° Southwest 131 151 8,400 590 Climbing Washington Center
Wed 01:54:32 PM 38.0733 -78.5011 246° West 131 151 9,000 555 Climbing Washington Center
Wed 01:55:30 PM 38.0619 -78.5428 251° West 131 151 9,500 454 Climbing Washington Center
Wed 01:56:31 PM 38.0486 -78.5794 245° Southwest 131 151 9,900 246 Climbing Washington Center
Wed 01:57:32 PM 38.0308 -78.6233 243° Southwest 131 151 10,000 50 Climbing Washington Center
Wed 01:58:30 PM 38.0128 -78.6703 244° Southwest 136 157 10,000  Level Washington Center
Wed 01:59:31 PM 37.9928 -78.7194 243° Southwest 142 163 10,000  Level Washington Center
Wed 02:00:31 PM 37.9728 -78.7714 244° Southwest 155 178 10,000  Level Washington Center
Wed 02:01:32 PM 37.9547 -78.8206 245° Southwest 155 178 10,000  Level Washington Center
Wed 02:02:30 PM 37.9367 -78.8672 244° Southwest 155 178 10,000  Level Washington Center
Wed 02:03:31 PM 37.9208 -78.9086 244° Southwest 155 178 10,000  Level Washington Center
Wed 02:04:32 PM 37.9031 -78.9553 244° Southwest 155 178 10,000  Level Washington Center
Wed 02:05:30 PM 37.8953 -79.0047 259° West 155 178 10,000  Level Washington Center
Wed 02:06:30 PM 37.8753 -79.0461 239° Southwest 149 171 10,000  Level Washington Center
Wed 02:07:31 PM 37.8572 -79.0978 246° West 149 171 10,000  Level Washington Center
Wed 02:08:32 PM 37.8392 -79.1442 244° Southwest 149 171 10,000 50 Level Washington Center
Wed 02:09:30 PM 37.8211 -79.1908 244° Southwest 149 171 10,100 50 Climbing Washington Center
Wed 02:10:31 PM 37.8072 -79.2322 247° West 149 171 10,100  Level Washington Center
Wed 02:11:32 PM 37.7892 -79.2761 243° Southwest 149 171 10,100  Level Washington Center
Wed 02:12:30 PM 37.7711 -79.3225 244° Southwest 154 177 10,100  Level Washington Center
Wed 02:13:30 PM 37.7531 -79.3689 244° Southwest 154 177 10,100  Level Washington Center
Wed 02:14:32 PM 37.7328 -79.4150 241° Southwest 154 177 10,100 -49 Level Washington Center
Wed 02:15:32 PM 37.7047 -79.4478 223° Southwest 149 171 10,000 -51 Descending Washington Center
Wed 02:16:30 PM 37.6825 -79.4886 235° Southwest 149 171 10,000  Level Washington Center
Wed 02:17:31 PM 37.6603 -79.5267 234° Southwest 143 165 10,000  Level Washington Center
Wed 02:18:32 PM 37.6422 -79.5706 243° Southwest 138 159 10,000  Level Washington Center
Wed 02:19:30 PM 37.6286 -79.6039 243° Southwest 138 159 10,000  Level Washington Center
Wed 02:20:30 PM 37.6081 -79.6553 243° Southwest 138 159 10,000  Level Washington Center
Wed 02:21:32 PM 37.5919 -79.6961 244° Southwest 138 159 10,000  Level Washington Center
Wed 02:23:00 PM 37.5622 -79.7728 244° Southwest  Level FlightAware Approximate
Wed 02:30:00 PM 37.4197 -80.1378 244° Southwest  Level FlightAware Approximate
Wed 02:31:00 PM 37.3992 -80.1898 244° Southwest  Level FlightAware Approximate
Wed 02:32:00 PM 37.3787 -80.2418 244° Southwest  Level FlightAware Approximate
Wed 02:33:00 PM 37.3582 -80.2938 244° Southwest  Level FlightAware Approximate
Wed 02:34:00 PM 37.3377 -80.3457 244° Southwest  Level FlightAware Approximate
Wed 02:35:00 PM 37.3171 -80.3977 244° Southwest  Level FlightAware Approximate
Wed 02:36:00 PM 37.2966 -80.4495 244° Southwest  Level FlightAware Approximate
Wed 02:37:00 PM 37.2760 -80.5014 243° Southwest  Level FlightAware Approximate
Wed 02:38:00 PM 37.2553 -80.5532 243° Southwest  Level FlightAware Approximate
Wed 02:39:00 PM 37.2404 -80.6068 243° Southwest  Level FlightAware Approximate
Wed 02:39:06 PM 37.3217 -80.3853 243° Southwest 141 162 10,000  Level Atlanta Center
Wed 02:40:00 PM 37.2194 -80.6583 243° Southwest  Level FlightAware Approximate
Wed 02:40:06 PM 37.3061 -80.4225 242° Southwest 135 155 10,000  Level Atlanta Center
Wed 02:41:00 PM 37.1983 -80.7098 243° Southwest  Level FlightAware Approximate
Wed 02:41:06 PM 37.2906 -80.4625 244° Southwest 130 150 10,100  Level Atlanta Center
Wed 02:42:00 PM 37.1772 -80.7612 243° Southwest  Level FlightAware Approximate
Wed 02:42:06 PM 37.2731 -80.5022 241° Southwest 125 144 10,100  Level Atlanta Center
Wed 02:43:00 PM 37.1560 -80.8127 243° Southwest  Level FlightAware Approximate
Wed 02:43:06 PM 37.2594 -80.5394 245° Southwest 125 144 10,100  Level Atlanta Center
Wed 02:44:06 PM 37.2458 -80.5767 245° Southwest 125 144 10,100  Level Atlanta Center
Wed 02:45:06 PM 37.2303 -80.6139 242° Southwest 125 144 10,100  Level Atlanta Center
Wed 02:46:06 PM 37.2128 -80.6536 241° Southwest 125 144 10,100  Level Atlanta Center
Wed 02:47:06 PM 37.1972 -80.6933 244° Southwest 125 144 10,100  Level Atlanta Center
Wed 02:48:06 PM 37.1794 -80.7383 244° Southwest 130 150 10,100  Level Atlanta Center
Wed 02:49:06 PM 37.1639 -80.7756 242° Southwest 130 150 10,100  Level Atlanta Center
Wed 02:50:06 PM 37.1483 -80.8153 244° Southwest 130 150 10,100  Level Atlanta Center
Wed 02:51:06 PM 37.1347 -80.8547 247° West 135 155 10,100  Level Atlanta Center
Wed 02:52:06 PM 37.1189 -80.8894 240° Southwest 135 155 10,100  Level Atlanta Center
Wed 02:53:06 PM 37.1011 -80.9317 242° Southwest 135 155 10,100  Level Atlanta Center
Wed 02:54:06 PM 37.0856 -80.9714 244° Southwest 135 155 10,100  Level Atlanta Center
Wed 02:55:06 PM 37.0678 -81.0161 244° Southwest 135 155 10,100 250 Level Atlanta Center
Wed 02:56:06 PM 37.0519 -81.0506 240° Southwest 135 155 10,600 450 Climbing Atlanta Center
Wed 02:57:06 PM 37.0403 -81.0850 247° West 129 148 11,000 400 Climbing Atlanta Center
Wed 02:58:06 PM 37.0244 -81.1192 240° Southwest 123 142 11,400 400 Climbing Atlanta Center
Wed 02:59:06 PM 37.0128 -81.1508 245° Southwest 123 142 11,800 350 Climbing Atlanta Center
Wed 03:00:06 PM 36.9989 -81.1853 243° Southwest 123 142 12,100 150 Climbing Atlanta Center
Wed 03:01:06 PM 36.9831 -81.2194 240° Southwest 123 142 12,100  Level Atlanta Center
Wed 03:02:06 PM 36.9675 -81.2642 246° West 123 142 12,100  Level Atlanta Center
Wed 03:03:06 PM 36.9494 -81.3039 240° Southwest 128 147 12,100  Level Atlanta Center
Wed 03:04:06 PM 36.9317 -81.3458 242° Southwest 128 147 12,100  Level Atlanta Center
Wed 03:05:06 PM 36.9158 -81.3881 245° Southwest 138 159 12,100  Level Atlanta Center
Wed 03:06:06 PM 36.9000 -81.4250 242° Southwest 138 159 12,100  Level Atlanta Center
Wed 03:07:06 PM 36.8822 -81.4644 241° Southwest 138 159 12,100  Level Atlanta Center
Wed 03:08:06 PM 36.8642 -81.5092 243° Southwest 138 159 12,100  Level Atlanta Center
Wed 03:09:06 PM 36.8486 -81.5589 249° West 138 159 12,100  Level Atlanta Center
Wed 03:10:06 PM 36.8308 -81.6036 244° Southwest 143 165 12,100  Level Atlanta Center
Wed 03:11:06 PM 36.8147 -81.6431 243° Southwest 143 165 12,100  Level Atlanta Center
Wed 03:12:06 PM 36.7969 -81.6875 243° Southwest 138 159 12,100  Level Atlanta Center
Wed 03:13:06 PM 36.7789 -81.7294 242° Southwest 138 159 12,100  Level Atlanta Center
Wed 03:14:06 PM 36.7611 -81.7714 242° Southwest 138 159 12,100  Level Atlanta Center
Wed 03:15:06 PM 36.7431 -81.8136 242° Southwest 138 159 12,100  Level Atlanta Center
Wed 03:16:06 PM 36.7250 -81.8581 243° Southwest 138 159 12,100  Level Atlanta Center
Wed 03:17:06 PM 36.7089 -81.8972 243° Southwest 138 159 12,100  Level Atlanta Center
Wed 03:18:06 PM 36.6911 -81.9417 243° Southwest 138 159 12,100  Level Atlanta Center
Wed 03:19:06 PM 36.6731 -81.9836 242° Southwest 138 159 12,100  Level Atlanta Center
Wed 03:20:06 PM 36.6550 -82.0281 243° Southwest 138 159 12,100  Level Atlanta Center
Wed 03:21:06 PM 36.6369 -82.0700 242° Southwest 138 159 12,100  Level Atlanta Center
Wed 03:22:06 PM 36.6189 -82.1144 243° Southwest 138 159 12,100  Level Atlanta Center
Wed 03:23:06 PM 36.6006 -82.1561 241° Southwest 138 159 12,100  Level Atlanta Center
Wed 03:24:06 PM 36.5825 -82.2006 243° Southwest 138 159 12,100  Level Atlanta Center
Wed 03:25:06 PM 36.5644 -82.2425 242° Southwest 138 159 12,100  Level Atlanta Center
Wed 03:26:06 PM 36.5464 -82.2892 244° Southwest 138 159 12,100  Level Atlanta Center
Wed 03:27:06 PM 36.5261 -82.3311 239° Southwest 138 159 12,100  Level Atlanta Center
Wed 03:28:06 PM 36.5081 -82.3781 244° Southwest 138 159 12,100  Level Atlanta Center
Wed 03:29:06 PM 36.4878 -82.4222 240° Southwest 138 159 12,100  Level Atlanta Center
Wed 03:30:06 PM 36.4694 -82.4664 243° Southwest 143 165 12,100  Level Atlanta Center
Wed 03:31:06 PM 36.4514 -82.5108 243° Southwest 143 165 12,100  Level Atlanta Center
Wed 03:32:06 PM 36.4311 -82.5575 242° Southwest 143 165 12,100  Level Atlanta Center
Wed 03:33:06 PM 36.4128 -82.6017 243° Southwest 143 165 12,100  Level Atlanta Center
Wed 03:34:06 PM 36.3944 -82.6433 241° Southwest 137 158 12,100  Level Atlanta Center
Wed 03:35:06 PM 36.3783 -82.6850 244° Southwest 137 158 12,100  Level Atlanta Center
Wed 03:36:06 PM 36.3600 -82.7264 241° Southwest 137 158 12,100  Level Atlanta Center
Wed 03:37:06 PM 36.3417 -82.7706 243° Southwest 137 158 12,100  Level Atlanta Center
Wed 03:38:06 PM 36.3233 -82.8122 241° Southwest 137 158 12,100  Level Atlanta Center
Wed 03:39:06 PM 36.3089 -82.8458 242° Southwest 137 158 12,100  Level Atlanta Center
Wed 03:40:06 PM 36.2844 -82.9003 241° Southwest 137 158 12,100  Level Atlanta Center
Wed 03:41:06 PM 36.2661 -82.9442 243° Southwest 137 158 12,100 -50 Level Atlanta Center
Wed 03:42:06 PM 36.2478 -82.9883 243° Southwest 143 165 12,000 -50 Descending Atlanta Center
Wed 03:43:06 PM 36.2272 -83.0325 240° Southwest 142 163 12,000  Level Atlanta Center
Wed 03:44:06 PM 36.2089 -83.0764 243° Southwest 142 163 12,000  Level Atlanta Center
Wed 03:45:06 PM 36.1925 -83.1203 245° Southwest 136 157 12,000 -250 Level Atlanta Center
Wed 03:46:06 PM 36.1700 -83.1667 239° Southwest 147 169 11,500 -400 Descending Atlanta Center
Wed 03:47:06 PM 36.1494 -83.2158 243° Southwest 161 185 11,200 -450 Descending Atlanta Center
Wed 03:48:06 PM 36.1267 -83.2675 241° Southwest 161 185 10,600 -600 Descending Atlanta Center
Wed 03:49:06 PM 36.1042 -83.3192 242° Southwest 171 197 10,000 -700 Descending Atlanta Center
Wed 03:50:06 PM 36.0814 -83.3758 244° Southwest 176 203 9,200 -750 Descending Atlanta Center
Wed 03:51:06 PM 36.0567 -83.4300 241° Southwest 181 208 8,500 -600 Descending Atlanta Center
Wed 03:52:06 PM 36.0361 -83.4789 243° Southwest 181 208 8,000 -600 Descending Atlanta Center
Wed 03:53:06 PM 36.0133 -83.5306 241° Southwest 181 208 7,300 -700 Descending Atlanta Center
Wed 03:54:06 PM 35.9886 -83.5897 243° Southwest 186 214 6,600 -650 Descending Atlanta Center
Wed 03:55:06 PM 35.9594 -83.6333 230° Southwest 186 214 6,000 -600 Descending Atlanta Center
Wed 03:57:00 PM 35.9202 -83.7099 238° Southwest  Level FlightAware Approximate
Wed 04:04:00 PM 35.8000 -83.9833 219° Southwest  Level FlightAware Approximate
Wed 04:05:00 PM 35.8110 -83.9940 219° Southwest  Level Estimated
Wed 04:06:00 PM 35.8110 -83.9940 219° Southwest  Level Estimated
Wed 04:07:00 PM 35.8110 -83.9940 219° Southwest  Level Estimated
Wed 04:08:00 PM 35.8110 -83.9940 219° Southwest  Level Estimated
Wed 04:09:00 PM 35.8110 -83.9940 219° Southwest  Level Estimated
Wed 04:10:00 PM 35.8110 -83.9940 219° Southwest  Level Estimated
Wed 04:11:00 PM 35.8110 -83.9940 219° Southwest  Level Estimated
Wed 04:12:00 PM 35.8110 -83.9940 219° Southwest  Level Estimated

Login

Don't have an account? Register now (free) for customized features, flight alerts, and more!